sensor_id;sensor_type;location;lat;lon;timestamp;P1;durP1;ratioP1;P2;durP2;ratioP2
5912;SDS011;2982;42.684;23.356;2023-09-07T00:00:38;8.57;;;7.70;;
5912;SDS011;2982;42.684;23.356;2023-09-07T00:03:04;11.90;;;7.68;;
5912;SDS011;2982;42.684;23.356;2023-09-07T00:05:29;9.10;;;8.30;;
5912;SDS011;2982;42.684;23.356;2023-09-07T00:07:55;8.60;;;7.70;;
5912;SDS011;2982;42.684;23.356;2023-09-07T00:10:20;9.80;;;8.15;;
5912;SDS011;2982;42.684;23.356;2023-09-07T00:12:45;8.27;;;7.55;;
5912;SDS011;2982;42.684;23.356;2023-09-07T00:15:11;9.10;;;8.10;;
5912;SDS011;2982;42.684;23.356;2023-09-07T00:17:36;8.15;;;7.53;;
5912;SDS011;2982;42.684;23.356;2023-09-07T00:20:02;9.50;;;8.07;;
5912;SDS011;2982;42.684;23.356;2023-09-07T00:22:27;8.18;;;7.68;;
5912;SDS011;2982;42.684;23.356;2023-09-07T00:24:53;8.98;;;8.30;;
5912;SDS011;2982;42.684;23.356;2023-09-07T00:27:18;9.63;;;8.80;;
5912;SDS011;2982;42.684;23.356;2023-09-07T00:29:43;8.73;;;8.00;;
5912;SDS011;2982;42.684;23.356;2023-09-07T00:32:08;8.45;;;7.68;;
5912;SDS011;2982;42.684;23.356;2023-09-07T00:34:34;14.88;;;8.00;;
5912;SDS011;2982;42.684;23.356;2023-09-07T00:36:59;9.85;;;8.60;;
5912;SDS011;2982;42.684;23.356;2023-09-07T00:39:25;9.43;;;8.73;;
5912;SDS011;2982;42.684;23.356;2023-09-07T00:41:50;10.32;;;9.43;;
5912;SDS011;2982;42.684;23.356;2023-09-07T00:44:15;9.88;;;8.80;;
5912;SDS011;2982;42.684;23.356;2023-09-07T00:46:41;9.48;;;8.70;;
5912;SDS011;2982;42.684;23.356;2023-09-07T00:49:07;10.05;;;9.00;;
5912;SDS011;2982;42.684;23.356;2023-09-07T00:51:33;10.45;;;9.57;;
5912;SDS011;2982;42.684;23.356;2023-09-07T00:53:58;9.50;;;8.70;;
5912;SDS011;2982;42.684;23.356;2023-09-07T00:56:25;9.93;;;9.00;;
5912;SDS011;2982;42.684;23.356;2023-09-07T00:58:51;9.85;;;8.90;;
5912;SDS011;2982;42.684;23.356;2023-09-07T01:01:18;11.25;;;9.15;;
5912;SDS011;2982;42.684;23.356;2023-09-07T01:03:43;9.93;;;9.00;;
5912;SDS011;2982;42.684;23.356;2023-09-07T01:08:46;9.30;;;8.68;;
5912;SDS011;2982;42.684;23.356;2023-09-07T01:11:14;11.38;;;9.23;;
5912;SDS011;2982;42.684;23.356;2023-09-07T01:13:40;10.88;;;10.00;;
5912;SDS011;2982;42.684;23.356;2023-09-07T01:16:05;11.00;;;9.85;;
5912;SDS011;2982;42.684;23.356;2023-09-07T01:18:31;12.18;;;9.90;;
5912;SDS011;2982;42.684;23.356;2023-09-07T01:20:57;13.13;;;10.60;;
5912;SDS011;2982;42.684;23.356;2023-09-07T01:23:24;12.10;;;10.88;;
5912;SDS011;2982;42.684;23.356;2023-09-07T01:25:49;12.13;;;11.07;;
5912;SDS011;2982;42.684;23.356;2023-09-07T01:28:15;11.45;;;10.15;;
5912;SDS011;2982;42.684;23.356;2023-09-07T01:30:41;11.90;;;10.77;;
5912;SDS011;2982;42.684;23.356;2023-09-07T01:33:06;12.05;;;10.95;;
5912;SDS011;2982;42.684;23.356;2023-09-07T01:35:34;11.82;;;10.88;;
5912;SDS011;2982;42.684;23.356;2023-09-07T01:38:01;13.10;;;11.32;;
5912;SDS011;2982;42.684;23.356;2023-09-07T01:40:27;12.57;;;11.38;;
5912;SDS011;2982;42.684;23.356;2023-09-07T01:42:52;11.80;;;10.90;;
5912;SDS011;2982;42.684;23.356;2023-09-07T01:45:17;13.55;;;12.20;;
5912;SDS011;2982;42.684;23.356;2023-09-07T01:47:43;13.57;;;12.32;;
5912;SDS011;2982;42.684;23.356;2023-09-07T01:50:08;12.65;;;11.55;;
5912;SDS011;2982;42.684;23.356;2023-09-07T01:52:36;13.40;;;11.65;;
5912;SDS011;2982;42.684;23.356;2023-09-07T01:55:27;13.95;;;12.60;;
5912;SDS011;2982;42.684;23.356;2023-09-07T01:57:56;13.60;;;12.23;;
5912;SDS011;2982;42.684;23.356;2023-09-07T02:00:22;13.75;;;12.52;;
5912;SDS011;2982;42.684;23.356;2023-09-07T02:02:47;14.48;;;13.15;;
5912;SDS011;2982;42.684;23.356;2023-09-07T02:05:12;15.05;;;13.32;;
5912;SDS011;2982;42.684;23.356;2023-09-07T02:07:38;13.98;;;12.68;;
5912;SDS011;2982;42.684;23.356;2023-09-07T02:10:05;14.82;;;13.43;;
5912;SDS011;2982;42.684;23.356;2023-09-07T02:12:31;14.15;;;13.13;;
5912;SDS011;2982;42.684;23.356;2023-09-07T02:14:59;14.43;;;13.13;;
5912;SDS011;2982;42.684;23.356;2023-09-07T02:17:27;15.18;;;13.88;;
5912;SDS011;2982;42.684;23.356;2023-09-07T02:22:41;15.70;;;13.73;;
5912;SDS011;2982;42.684;23.356;2023-09-07T02:25:06;16.65;;;14.68;;
5912;SDS011;2982;42.684;23.356;2023-09-07T02:27:32;14.13;;;12.70;;
5912;SDS011;2982;42.684;23.356;2023-09-07T02:29:58;16.15;;;13.98;;
5912;SDS011;2982;42.684;23.356;2023-09-07T02:32:23;14.25;;;12.77;;
5912;SDS011;2982;42.684;23.356;2023-09-07T02:34:48;15.27;;;13.82;;
5912;SDS011;2982;42.684;23.356;2023-09-07T02:37:14;13.65;;;12.55;;
5912;SDS011;2982;42.684;23.356;2023-09-07T02:39:39;15.82;;;14.20;;
5912;SDS011;2982;42.684;23.356;2023-09-07T02:42:04;17.45;;;13.27;;
5912;SDS011;2982;42.684;23.356;2023-09-07T02:44:32;15.88;;;14.35;;
5912;SDS011;2982;42.684;23.356;2023-09-07T02:47:16;15.25;;;13.85;;
5912;SDS011;2982;42.684;23.356;2023-09-07T02:49:44;20.95;;;13.98;;
5912;SDS011;2982;42.684;23.356;2023-09-07T02:52:09;15.23;;;13.70;;
5912;SDS011;2982;42.684;23.356;2023-09-07T02:54:34;14.55;;;13.10;;
5912;SDS011;2982;42.684;23.356;2023-09-07T02:56:59;14.20;;;12.80;;
5912;SDS011;2982;42.684;23.356;2023-09-07T02:59:25;14.90;;;13.52;;
5912;SDS011;2982;42.684;23.356;2023-09-07T03:01:51;15.50;;;13.55;;
5912;SDS011;2982;42.684;23.356;2023-09-07T03:04:16;14.98;;;13.57;;
5912;SDS011;2982;42.684;23.356;2023-09-07T03:06:41;15.52;;;13.77;;
5912;SDS011;2982;42.684;23.356;2023-09-07T03:09:07;19.30;;;14.82;;
5912;SDS011;2982;42.684;23.356;2023-09-07T03:17:36;16.95;;;15.30;;
5912;SDS011;2982;42.684;23.356;2023-09-07T03:20:01;17.67;;;15.98;;
5912;SDS011;2982;42.684;23.356;2023-09-07T03:22:26;17.80;;;15.90;;
5912;SDS011;2982;42.684;23.356;2023-09-07T03:24:52;17.95;;;15.77;;
5912;SDS011;2982;42.684;23.356;2023-09-07T03:27:17;17.98;;;16.15;;
5912;SDS011;2982;42.684;23.356;2023-09-07T03:29:44;18.10;;;16.38;;
5912;SDS011;2982;42.684;23.356;2023-09-07T03:32:09;18.10;;;16.40;;
5912;SDS011;2982;42.684;23.356;2023-09-07T03:40:21;24.45;;;17.75;;
5912;SDS011;2982;42.684;23.356;2023-09-07T03:43:27;19.05;;;16.95;;
5912;SDS011;2982;42.684;23.356;2023-09-07T03:46:37;19.52;;;17.70;;
5912;SDS011;2982;42.684;23.356;2023-09-07T03:49:28;20.50;;;17.85;;
5912;SDS011;2982;42.684;23.356;2023-09-07T03:52:30;18.75;;;16.75;;
5912;SDS011;2982;42.684;23.356;2023-09-07T04:03:09;19.40;;;17.15;;
5912;SDS011;2982;42.684;23.356;2023-09-07T04:05:54;21.00;;;17.40;;
5912;SDS011;2982;42.684;23.356;2023-09-07T04:09:04;20.60;;;18.50;;
5912;SDS011;2982;42.684;23.356;2023-09-07T04:12:12;20.20;;;18.17;;
5912;SDS011;2982;42.684;23.356;2023-09-07T04:20:44;19.95;;;18.15;;
5912;SDS011;2982;42.684;23.356;2023-09-07T04:26:09;20.00;;;17.88;;
5912;SDS011;2982;42.684;23.356;2023-09-07T04:29:20;19.65;;;17.75;;
5912;SDS011;2982;42.684;23.356;2023-09-07T04:32:29;20.05;;;18.08;;
5912;SDS011;2982;42.684;23.356;2023-09-07T04:35:29;21.10;;;18.88;;
5912;SDS011;2982;42.684;23.356;2023-09-07T04:38:15;23.88;;;19.02;;
5912;SDS011;2982;42.684;23.356;2023-09-07T04:40:41;19.55;;;17.27;;
5912;SDS011;2982;42.684;23.356;2023-09-07T04:43:20;20.60;;;16.90;;
5912;SDS011;2982;42.684;23.356;2023-09-07T04:45:46;18.80;;;17.10;;
5912;SDS011;2982;42.684;23.356;2023-09-07T04:48:12;18.58;;;16.77;;
5912;SDS011;2982;42.684;23.356;2023-09-07T04:50:37;20.80;;;18.50;;
5912;SDS011;2982;42.684;23.356;2023-09-07T04:53:23;21.67;;;16.25;;
5912;SDS011;2982;42.684;23.356;2023-09-07T04:56:07;21.17;;;18.40;;
5912;SDS011;2982;42.684;23.356;2023-09-07T04:58:36;18.88;;;16.95;;
5912;SDS011;2982;42.684;23.356;2023-09-07T05:01:04;24.85;;;17.25;;
5912;SDS011;2982;42.684;23.356;2023-09-07T05:03:38;19.35;;;17.30;;
5912;SDS011;2982;42.684;23.356;2023-09-07T05:06:05;23.85;;;20.40;;
5912;SDS011;2982;42.684;23.356;2023-09-07T05:12:24;20.02;;;18.05;;
5912;SDS011;2982;42.684;23.356;2023-09-07T05:15:09;17.50;;;15.60;;
5912;SDS011;2982;42.684;23.356;2023-09-07T05:17:35;19.77;;;17.27;;
5912;SDS011;2982;42.684;23.356;2023-09-07T05:23:16;18.73;;;16.73;;
5912;SDS011;2982;42.684;23.356;2023-09-07T05:25:56;19.23;;;17.25;;
5912;SDS011;2982;42.684;23.356;2023-09-07T05:28:42;18.48;;;16.73;;
5912;SDS011;2982;42.684;23.356;2023-09-07T05:31:19;20.65;;;17.50;;
5912;SDS011;2982;42.684;23.356;2023-09-07T05:36:35;20.02;;;17.92;;
5912;SDS011;2982;42.684;23.356;2023-09-07T05:39:40;19.95;;;16.38;;
5912;SDS011;2982;42.684;23.356;2023-09-07T05:42:36;18.95;;;16.30;;
5912;SDS011;2982;42.684;23.356;2023-09-07T05:45:09;20.92;;;16.55;;
5912;SDS011;2982;42.684;23.356;2023-09-07T05:48:17;26.30;;;16.13;;
5912;SDS011;2982;42.684;23.356;2023-09-07T05:50:42;16.92;;;14.65;;
5912;SDS011;2982;42.684;23.356;2023-09-07T05:53:23;16.67;;;15.02;;
5912;SDS011;2982;42.684;23.356;2023-09-07T05:55:48;18.60;;;14.43;;
5912;SDS011;2982;42.684;23.356;2023-09-07T05:58:14;19.05;;;15.50;;
5912;SDS011;2982;42.684;23.356;2023-09-07T06:00:39;17.75;;;15.02;;
5912;SDS011;2982;42.684;23.356;2023-09-07T06:03:10;16.35;;;14.63;;
5912;SDS011;2982;42.684;23.356;2023-09-07T06:05:39;17.02;;;15.30;;
5912;SDS011;2982;42.684;23.356;2023-09-07T06:08:19;16.05;;;14.55;;
5912;SDS011;2982;42.684;23.356;2023-09-07T06:10:45;27.65;;;15.50;;
5912;SDS011;2982;42.684;23.356;2023-09-07T06:13:12;16.25;;;14.50;;
5912;SDS011;2982;42.684;23.356;2023-09-07T06:15:37;21.25;;;13.60;;
5912;SDS011;2982;42.684;23.356;2023-09-07T06:18:05;13.75;;;12.43;;
5912;SDS011;2982;42.684;23.356;2023-09-07T06:20:34;13.32;;;12.13;;
5912;SDS011;2982;42.684;23.356;2023-09-07T06:23:02;20.80;;;13.77;;
5912;SDS011;2982;42.684;23.356;2023-09-07T06:25:28;24.55;;;13.25;;
5912;SDS011;2982;42.684;23.356;2023-09-07T06:27:53;13.27;;;10.85;;
5912;SDS011;2982;42.684;23.356;2023-09-07T06:30:18;133.85;;;20.85;;
5912;SDS011;2982;42.684;23.356;2023-09-07T06:32:44;20.50;;;12.20;;
5912;SDS011;2982;42.684;23.356;2023-09-07T06:35:09;21.20;;;12.13;;
5912;SDS011;2982;42.684;23.356;2023-09-07T06:37:35;18.63;;;11.27;;
5912;SDS011;2982;42.684;23.356;2023-09-07T06:40:01;26.42;;;12.88;;
5912;SDS011;2982;42.684;23.356;2023-09-07T06:42:27;27.67;;;11.32;;
5912;SDS011;2982;42.684;23.356;2023-09-07T06:44:52;21.15;;;11.07;;
5912;SDS011;2982;42.684;23.356;2023-09-07T06:47:17;10.73;;;9.70;;
5912;SDS011;2982;42.684;23.356;2023-09-07T06:49:44;12.65;;;8.90;;
5912;SDS011;2982;42.684;23.356;2023-09-07T06:52:09;16.67;;;10.18;;
5912;SDS011;2982;42.684;23.356;2023-09-07T06:54:36;11.02;;;9.98;;
5912;SDS011;2982;42.684;23.356;2023-09-07T06:57:01;15.50;;;9.05;;
5912;SDS011;2982;42.684;23.356;2023-09-07T06:59:26;11.13;;;10.00;;
5912;SDS011;2982;42.684;23.356;2023-09-07T07:01:53;10.45;;;9.32;;
5912;SDS011;2982;42.684;23.356;2023-09-07T07:04:18;13.27;;;10.18;;
5912;SDS011;2982;42.684;23.356;2023-09-07T07:06:43;11.02;;;8.48;;
5912;SDS011;2982;42.684;23.356;2023-09-07T07:09:09;14.32;;;8.93;;
5912;SDS011;2982;42.684;23.356;2023-09-07T07:11:35;12.00;;;8.70;;
5912;SDS011;2982;42.684;23.356;2023-09-07T07:14:00;9.65;;;8.48;;
5912;SDS011;2982;42.684;23.356;2023-09-07T07:16:36;11.52;;;8.57;;
5912;SDS011;2982;42.684;23.356;2023-09-07T07:19:01;24.55;;;9.85;;
5912;SDS011;2982;42.684;23.356;2023-09-07T07:21:29;9.23;;;8.02;;
5912;SDS011;2982;42.684;23.356;2023-09-07T07:23:54;9.75;;;8.63;;
5912;SDS011;2982;42.684;23.356;2023-09-07T07:26:23;9.75;;;8.85;;
5912;SDS011;2982;42.684;23.356;2023-09-07T07:28:49;14.02;;;8.20;;
5912;SDS011;2982;42.684;23.356;2023-09-07T07:31:14;7.90;;;7.35;;
5912;SDS011;2982;42.684;23.356;2023-09-07T07:33:40;9.77;;;7.22;;
5912;SDS011;2982;42.684;23.356;2023-09-07T07:36:05;45.13;;;8.50;;
5912;SDS011;2982;42.684;23.356;2023-09-07T07:38:31;6.18;;;5.68;;
5912;SDS011;2982;42.684;23.356;2023-09-07T07:40:56;8.10;;;7.35;;
5912;SDS011;2982;42.684;23.356;2023-09-07T07:43:22;7.63;;;6.80;;
5912;SDS011;2982;42.684;23.356;2023-09-07T07:45:47;24.42;;;7.85;;
5912;SDS011;2982;42.684;23.356;2023-09-07T07:48:12;8.45;;;6.60;;
5912;SDS011;2982;42.684;23.356;2023-09-07T07:50:38;7.72;;;7.00;;
5912;SDS011;2982;42.684;23.356;2023-09-07T07:53:04;11.95;;;5.28;;
5912;SDS011;2982;42.684;23.356;2023-09-07T07:55:34;5.45;;;4.95;;
5912;SDS011;2982;42.684;23.356;2023-09-07T07:58:02;8.40;;;5.95;;
5912;SDS011;2982;42.684;23.356;2023-09-07T08:00:28;6.85;;;6.03;;
5912;SDS011;2982;42.684;23.356;2023-09-07T08:02:55;5.63;;;5.22;;
5912;SDS011;2982;42.684;23.356;2023-09-07T08:05:23;8.55;;;6.10;;
5912;SDS011;2982;42.684;23.356;2023-09-07T08:07:49;12.05;;;6.93;;
5912;SDS011;2982;42.684;23.356;2023-09-07T08:10:17;12.13;;;6.43;;
5912;SDS011;2982;42.684;23.356;2023-09-07T08:12:42;6.68;;;6.03;;
5912;SDS011;2982;42.684;23.356;2023-09-07T08:15:08;7.80;;;6.63;;
5912;SDS011;2982;42.684;23.356;2023-09-07T08:17:34;8.23;;;7.03;;
5912;SDS011;2982;42.684;23.356;2023-09-07T08:19:59;10.13;;;6.88;;
5912;SDS011;2982;42.684;23.356;2023-09-07T08:22:25;8.95;;;6.43;;
5912;SDS011;2982;42.684;23.356;2023-09-07T08:24:50;7.57;;;6.57;;
5912;SDS011;2982;42.684;23.356;2023-09-07T08:27:16;13.85;;;9.68;;
5912;SDS011;2982;42.684;23.356;2023-09-07T08:29:43;11.27;;;6.85;;
5912;SDS011;2982;42.684;23.356;2023-09-07T08:32:09;10.82;;;6.85;;
5912;SDS011;2982;42.684;23.356;2023-09-07T08:34:34;9.68;;;6.40;;
5912;SDS011;2982;42.684;23.356;2023-09-07T08:37:00;8.70;;;6.47;;
5912;SDS011;2982;42.684;23.356;2023-09-07T08:39:25;7.10;;;6.05;;
5912;SDS011;2982;42.684;23.356;2023-09-07T08:42:12;7.60;;;6.90;;
5912;SDS011;2982;42.684;23.356;2023-09-07T08:44:38;7.93;;;7.13;;
5912;SDS011;2982;42.684;23.356;2023-09-07T08:47:07;7.78;;;6.53;;
5912;SDS011;2982;42.684;23.356;2023-09-07T08:49:53;17.27;;;6.68;;
5912;SDS011;2982;42.684;23.356;2023-09-07T08:52:19;6.30;;;5.70;;
5912;SDS011;2982;42.684;23.356;2023-09-07T08:54:46;8.05;;;5.20;;
5912;SDS011;2982;42.684;23.356;2023-09-07T08:57:13;8.95;;;6.43;;
5912;SDS011;2982;42.684;23.356;2023-09-07T08:59:39;8.20;;;7.13;;
5912;SDS011;2982;42.684;23.356;2023-09-07T09:02:07;9.93;;;6.28;;
5912;SDS011;2982;42.684;23.356;2023-09-07T09:04:44;5.93;;;5.40;;
5912;SDS011;2982;42.684;23.356;2023-09-07T09:07:10;8.18;;;5.60;;
5912;SDS011;2982;42.684;23.356;2023-09-07T09:09:35;5.82;;;5.38;;
5912;SDS011;2982;42.684;23.356;2023-09-07T09:12:10;9.52;;;5.05;;
5912;SDS011;2982;42.684;23.356;2023-09-07T09:14:36;5.50;;;5.10;;
5912;SDS011;2982;42.684;23.356;2023-09-07T09:17:02;5.43;;;4.68;;
5912;SDS011;2982;42.684;23.356;2023-09-07T09:19:35;6.07;;;4.55;;
5912;SDS011;2982;42.684;23.356;2023-09-07T09:22:03;11.70;;;6.45;;
5912;SDS011;2982;42.684;23.356;2023-09-07T09:24:31;10.18;;;9.23;;
5912;SDS011;2982;42.684;23.356;2023-09-07T09:27:28;12.95;;;5.40;;
5912;SDS011;2982;42.684;23.356;2023-09-07T09:30:43;6.60;;;4.97;;
5912;SDS011;2982;42.684;23.356;2023-09-07T09:33:52;6.10;;;5.00;;
5912;SDS011;2982;42.684;23.356;2023-09-07T09:37:02;19.08;;;5.70;;
5912;SDS011;2982;42.684;23.356;2023-09-07T09:39:28;7.30;;;4.55;;
5912;SDS011;2982;42.684;23.356;2023-09-07T09:41:54;5.43;;;5.03;;
5912;SDS011;2982;42.684;23.356;2023-09-07T09:44:20;8.63;;;5.82;;
5912;SDS011;2982;42.684;23.356;2023-09-07T09:46:47;7.13;;;4.15;;
5912;SDS011;2982;42.684;23.356;2023-09-07T09:49:16;7.63;;;4.57;;
5912;SDS011;2982;42.684;23.356;2023-09-07T09:51:44;18.60;;;6.00;;
5912;SDS011;2982;42.684;23.356;2023-09-07T09:54:10;10.18;;;4.95;;
5912;SDS011;2982;42.684;23.356;2023-09-07T09:56:37;4.22;;;3.65;;
5912;SDS011;2982;42.684;23.356;2023-09-07T09:59:02;20.98;;;6.18;;
5912;SDS011;2982;42.684;23.356;2023-09-07T10:01:28;7.78;;;5.72;;
5912;SDS011;2982;42.684;23.356;2023-09-07T10:03:55;66.05;;;9.13;;
5912;SDS011;2982;42.684;23.356;2023-09-07T10:06:23;24.73;;;7.72;;
5912;SDS011;2982;42.684;23.356;2023-09-07T10:09:11;15.60;;;5.55;;
5912;SDS011;2982;42.684;23.356;2023-09-07T10:11:37;4.63;;;4.13;;
5912;SDS011;2982;42.684;23.356;2023-09-07T10:14:03;7.07;;;5.55;;
5912;SDS011;2982;42.684;23.356;2023-09-07T10:19:33;6.80;;;5.03;;
5912;SDS011;2982;42.684;23.356;2023-09-07T10:22:20;6.78;;;5.22;;
5912;SDS011;2982;42.684;23.356;2023-09-07T10:27:54;59.42;;;8.95;;
5912;SDS011;2982;42.684;23.356;2023-09-07T10:32:49;48.85;;;8.45;;
5912;SDS011;2982;42.684;23.356;2023-09-07T10:35:15;20.55;;;6.82;;
5912;SDS011;2982;42.684;23.356;2023-09-07T10:37:45;20.60;;;7.00;;
5912;SDS011;2982;42.684;23.356;2023-09-07T10:40:11;18.90;;;5.38;;
5912;SDS011;2982;42.684;23.356;2023-09-07T10:42:37;5.18;;;4.55;;
5912;SDS011;2982;42.684;23.356;2023-09-07T10:45:09;9.20;;;4.78;;
5912;SDS011;2982;42.684;23.356;2023-09-07T10:47:42;6.97;;;5.30;;
5912;SDS011;2982;42.684;23.356;2023-09-07T10:53:12;4.55;;;4.25;;
5912;SDS011;2982;42.684;23.356;2023-09-07T10:55:39;18.15;;;5.25;;
5912;SDS011;2982;42.684;23.356;2023-09-07T10:58:05;15.13;;;5.93;;
5912;SDS011;2982;42.684;23.356;2023-09-07T11:00:31;6.07;;;5.47;;
5912;SDS011;2982;42.684;23.356;2023-09-07T11:02:57;4.80;;;4.47;;
5912;SDS011;2982;42.684;23.356;2023-09-07T11:05:31;6.47;;;4.90;;
5912;SDS011;2982;42.684;23.356;2023-09-07T11:07:57;42.22;;;7.40;;
5912;SDS011;2982;42.684;23.356;2023-09-07T11:10:23;10.18;;;4.80;;
5912;SDS011;2982;42.684;23.356;2023-09-07T11:12:49;6.20;;;5.00;;
5912;SDS011;2982;42.684;23.356;2023-09-07T11:15:16;4.93;;;4.55;;
5912;SDS011;2982;42.684;23.356;2023-09-07T11:17:44;4.22;;;3.92;;
5912;SDS011;2982;42.684;23.356;2023-09-07T11:20:10;8.15;;;4.78;;
5912;SDS011;2982;42.684;23.356;2023-09-07T11:22:36;5.93;;;4.15;;
5912;SDS011;2982;42.684;23.356;2023-09-07T11:25:01;14.63;;;5.50;;
5912;SDS011;2982;42.684;23.356;2023-09-07T11:27:30;5.40;;;4.13;;
5912;SDS011;2982;42.684;23.356;2023-09-07T11:29:56;9.50;;;4.47;;
5912;SDS011;2982;42.684;23.356;2023-09-07T11:32:22;20.90;;;5.93;;
5912;SDS011;2982;42.684;23.356;2023-09-07T11:34:48;4.35;;;3.50;;
5912;SDS011;2982;42.684;23.356;2023-09-07T11:37:24;4.60;;;3.40;;
5912;SDS011;2982;42.684;23.356;2023-09-07T11:39:50;9.95;;;4.60;;
5912;SDS011;2982;42.684;23.356;2023-09-07T11:42:17;25.50;;;4.72;;
5912;SDS011;2982;42.684;23.356;2023-09-07T11:44:42;6.70;;;3.80;;
5912;SDS011;2982;42.684;23.356;2023-09-07T11:47:08;4.50;;;3.50;;
5912;SDS011;2982;42.684;23.356;2023-09-07T11:49:38;3.70;;;3.40;;
5912;SDS011;2982;42.684;23.356;2023-09-07T11:52:03;4.53;;;3.97;;
5912;SDS011;2982;42.684;23.356;2023-09-07T11:54:29;3.97;;;3.60;;
5912;SDS011;2982;42.684;23.356;2023-09-07T11:56:59;4.28;;;3.10;;
5912;SDS011;2982;42.684;23.356;2023-09-07T11:59:25;5.65;;;3.28;;
5912;SDS011;2982;42.684;23.356;2023-09-07T12:04:59;3.25;;;3.05;;
5912;SDS011;2982;42.684;23.356;2023-09-07T12:07:42;12.20;;;3.97;;
5912;SDS011;2982;42.684;23.356;2023-09-07T12:10:08;4.72;;;3.55;;
5912;SDS011;2982;42.684;23.356;2023-09-07T12:12:35;5.28;;;3.53;;
5912;SDS011;2982;42.684;23.356;2023-09-07T12:15:03;4.82;;;3.35;;
5912;SDS011;2982;42.684;23.356;2023-09-07T12:17:29;3.72;;;3.45;;
5912;SDS011;2982;42.684;23.356;2023-09-07T12:19:55;3.25;;;3.03;;
5912;SDS011;2982;42.684;23.356;2023-09-07T12:22:22;7.95;;;3.47;;
5912;SDS011;2982;42.684;23.356;2023-09-07T12:24:49;4.93;;;3.40;;
5912;SDS011;2982;42.684;23.356;2023-09-07T12:27:18;9.10;;;3.33;;
5912;SDS011;2982;42.684;23.356;2023-09-07T12:29:56;3.88;;;3.08;;
5912;SDS011;2982;42.684;23.356;2023-09-07T12:32:21;4.97;;;3.60;;
5912;SDS011;2982;42.684;23.356;2023-09-07T12:34:47;4.15;;;3.10;;
5912;SDS011;2982;42.684;23.356;2023-09-07T12:37:12;5.35;;;3.63;;
5912;SDS011;2982;42.684;23.356;2023-09-07T12:39:38;5.55;;;5.00;;
5912;SDS011;2982;42.684;23.356;2023-09-07T12:42:03;4.60;;;2.92;;
5912;SDS011;2982;42.684;23.356;2023-09-07T12:44:32;10.15;;;3.60;;
5912;SDS011;2982;42.684;23.356;2023-09-07T12:46:58;8.00;;;3.45;;
5912;SDS011;2982;42.684;23.356;2023-09-07T12:49:32;4.38;;;3.40;;
5912;SDS011;2982;42.684;23.356;2023-09-07T12:52:06;3.55;;;3.25;;
5912;SDS011;2982;42.684;23.356;2023-09-07T12:54:37;10.95;;;4.32;;
5912;SDS011;2982;42.684;23.356;2023-09-07T12:57:06;4.95;;;3.42;;
5912;SDS011;2982;42.684;23.356;2023-09-07T12:59:31;4.15;;;3.65;;
5912;SDS011;2982;42.684;23.356;2023-09-07T13:01:59;8.32;;;3.72;;
5912;SDS011;2982;42.684;23.356;2023-09-07T13:04:24;67.88;;;6.05;;
5912;SDS011;2982;42.684;23.356;2023-09-07T13:06:53;18.85;;;3.97;;
5912;SDS011;2982;42.684;23.356;2023-09-07T13:09:21;3.47;;;3.17;;
5912;SDS011;2982;42.684;23.356;2023-09-07T13:11:50;8.90;;;3.60;;
5912;SDS011;2982;42.684;23.356;2023-09-07T13:14:15;82.10;;;12.90;;
5912;SDS011;2982;42.684;23.356;2023-09-07T13:19:39;12.05;;;3.83;;
5912;SDS011;2982;42.684;23.356;2023-09-07T13:22:05;12.98;;;3.88;;
5912;SDS011;2982;42.684;23.356;2023-09-07T13:24:31;5.90;;;3.47;;
5912;SDS011;2982;42.684;23.356;2023-09-07T13:26:56;3.70;;;3.50;;
5912;SDS011;2982;42.684;23.356;2023-09-07T13:29:21;4.05;;;3.05;;
5912;SDS011;2982;42.684;23.356;2023-09-07T13:31:47;8.15;;;3.60;;
5912;SDS011;2982;42.684;23.356;2023-09-07T13:34:12;13.48;;;3.20;;
5912;SDS011;2982;42.684;23.356;2023-09-07T13:36:39;3.60;;;3.30;;
5912;SDS011;2982;42.684;23.356;2023-09-07T13:39:04;3.38;;;3.03;;
5912;SDS011;2982;42.684;23.356;2023-09-07T13:41:31;10.65;;;3.90;;
5912;SDS011;2982;42.684;23.356;2023-09-07T13:43:56;8.73;;;4.10;;
5912;SDS011;2982;42.684;23.356;2023-09-07T13:46:22;3.50;;;3.20;;
5912;SDS011;2982;42.684;23.356;2023-09-07T13:48:47;3.50;;;3.08;;
5912;SDS011;2982;42.684;23.356;2023-09-07T13:51:12;5.78;;;3.63;;
5912;SDS011;2982;42.684;23.356;2023-09-07T13:53:38;5.80;;;4.10;;
5912;SDS011;2982;42.684;23.356;2023-09-07T13:56:03;5.80;;;3.75;;
5912;SDS011;2982;42.684;23.356;2023-09-07T13:58:29;7.57;;;3.10;;
5912;SDS011;2982;42.684;23.356;2023-09-07T14:00:54;15.73;;;4.50;;
5912;SDS011;2982;42.684;23.356;2023-09-07T14:03:19;3.95;;;3.58;;
5912;SDS011;2982;42.684;23.356;2023-09-07T14:05:45;7.75;;;4.13;;
5912;SDS011;2982;42.684;23.356;2023-09-07T14:08:18;5.90;;;3.95;;
5912;SDS011;2982;42.684;23.356;2023-09-07T14:10:46;5.60;;;4.07;;
5912;SDS011;2982;42.684;23.356;2023-09-07T14:13:14;5.53;;;4.65;;
5912;SDS011;2982;42.684;23.356;2023-09-07T14:15:42;3.97;;;3.63;;
5912;SDS011;2982;42.684;23.356;2023-09-07T14:18:08;6.57;;;3.70;;
5912;SDS011;2982;42.684;23.356;2023-09-07T14:20:38;7.65;;;3.03;;
5912;SDS011;2982;42.684;23.356;2023-09-07T14:23:09;4.05;;;3.75;;
5912;SDS011;2982;42.684;23.356;2023-09-07T14:25:36;4.22;;;3.50;;
5912;SDS011;2982;42.684;23.356;2023-09-07T14:28:01;4.05;;;3.47;;
5912;SDS011;2982;42.684;23.356;2023-09-07T14:30:30;3.88;;;3.40;;
5912;SDS011;2982;42.684;23.356;2023-09-07T14:32:57;3.65;;;3.20;;
5912;SDS011;2982;42.684;23.356;2023-09-07T14:35:23;3.83;;;3.42;;
5912;SDS011;2982;42.684;23.356;2023-09-07T14:37:49;7.50;;;3.67;;
5912;SDS011;2982;42.684;23.356;2023-09-07T14:40:16;13.32;;;3.83;;
5912;SDS011;2982;42.684;23.356;2023-09-07T14:42:42;6.13;;;3.42;;
5912;SDS011;2982;42.684;23.356;2023-09-07T14:45:07;6.88;;;3.30;;
5912;SDS011;2982;42.684;23.356;2023-09-07T14:47:33;7.35;;;4.57;;
5912;SDS011;2982;42.684;23.356;2023-09-07T14:49:59;12.80;;;3.83;;
5912;SDS011;2982;42.684;23.356;2023-09-07T14:52:29;8.50;;;3.63;;
5912;SDS011;2982;42.684;23.356;2023-09-07T14:54:57;4.28;;;3.35;;
5912;SDS011;2982;42.684;23.356;2023-09-07T14:57:25;6.63;;;4.00;;
5912;SDS011;2982;42.684;23.356;2023-09-07T14:59:52;8.93;;;3.30;;
5912;SDS011;2982;42.684;23.356;2023-09-07T15:02:17;17.15;;;4.18;;
5912;SDS011;2982;42.684;23.356;2023-09-07T15:04:42;4.40;;;4.00;;
5912;SDS011;2982;42.684;23.356;2023-09-07T15:07:08;5.90;;;3.80;;
5912;SDS011;2982;42.684;23.356;2023-09-07T15:09:33;4.53;;;3.40;;
5912;SDS011;2982;42.684;23.356;2023-09-07T15:11:59;9.85;;;3.45;;
5912;SDS011;2982;42.684;23.356;2023-09-07T15:14:28;3.63;;;3.42;;
5912;SDS011;2982;42.684;23.356;2023-09-07T15:16:53;17.10;;;4.10;;
5912;SDS011;2982;42.684;23.356;2023-09-07T15:19:19;3.58;;;3.38;;
5912;SDS011;2982;42.684;23.356;2023-09-07T15:21:44;4.07;;;3.60;;
5912;SDS011;2982;42.684;23.356;2023-09-07T15:24:12;3.72;;;3.42;;
5912;SDS011;2982;42.684;23.356;2023-09-07T15:26:41;12.07;;;4.30;;
5912;SDS011;2982;42.684;23.356;2023-09-07T15:29:07;5.00;;;3.70;;
5912;SDS011;2982;42.684;23.356;2023-09-07T15:31:33;5.03;;;3.85;;
5912;SDS011;2982;42.684;23.356;2023-09-07T15:33:59;4.85;;;3.05;;
5912;SDS011;2982;42.684;23.356;2023-09-07T15:36:25;5.50;;;4.07;;
5912;SDS011;2982;42.684;23.356;2023-09-07T15:38:50;4.75;;;3.47;;
5912;SDS011;2982;42.684;23.356;2023-09-07T15:41:16;4.40;;;4.05;;
5912;SDS011;2982;42.684;23.356;2023-09-07T15:43:42;3.95;;;3.50;;
5912;SDS011;2982;42.684;23.356;2023-09-07T15:46:08;4.28;;;3.88;;
5912;SDS011;2982;42.684;23.356;2023-09-07T15:48:34;4.07;;;3.80;;
5912;SDS011;2982;42.684;23.356;2023-09-07T15:50:59;4.32;;;3.85;;
5912;SDS011;2982;42.684;23.356;2023-09-07T15:53:25;7.88;;;4.28;;
5912;SDS011;2982;42.684;23.356;2023-09-07T15:55:51;7.25;;;4.32;;
5912;SDS011;2982;42.684;23.356;2023-09-07T15:58:17;5.70;;;4.07;;
5912;SDS011;2982;42.684;23.356;2023-09-07T16:00:47;4.10;;;3.78;;
5912;SDS011;2982;42.684;23.356;2023-09-07T16:03:13;8.27;;;4.53;;